Time;durP1;ratioP1;P1;durP2;ratioP2;P2;SDS_P1;SDS_P2;PMS_P1;PMS_P2;Temp;Humidity;BMP_temperature;BMP_pressure;BME280_temperature;BME280_humidity;BME280_pressure;Samples;Min_cycle;Max_cycle;Signal;HPM_P1;HPM_P2
2023/08/31 00:02:06;;;;;;;3.23;2.03;;;20.20;70.40;21.20;100063.00;;;;5025421;28;20202;-52
2023/08/31 00:04:32;;;;;;;2.77;2.00;;;20.20;70.50;21.10;100062.00;;;;5022333;28;20178;-53
2023/08/31 00:06:58;;;;;;;2.43;2.00;;;20.20;70.50;21.10;100065.00;;;;5027900;28;20578;-54
2023/08/31 00:09:24;;;;;;;2.17;2.00;;;20.20;70.30;21.10;100055.00;;;;5027152;28;20254;-53
2023/08/31 00:11:50;;;;;;;4.37;2.00;;;20.20;70.30;21.10;100059.00;;;;5027697;28;20193;-53
2023/08/31 00:14:17;;;;;;;3.07;2.10;;;20.10;70.10;21.00;100067.00;;;;5027524;28;20197;-52
2023/08/31 00:16:43;;;;;;;2.80;2.00;;;20.10;69.90;21.00;100052.00;;;;5027896;28;20198;-54
2023/08/31 00:19:08;;;;;;;3.63;2.30;;;20.00;69.60;21.00;100053.00;;;;5028070;28;20209;-52
2023/08/31 00:21:34;;;;;;;3.03;2.00;;;20.10;69.60;21.00;100063.00;;;;5028213;28;20297;-53
2023/08/31 00:24:00;;;;;;;2.30;2.10;;;20.00;69.40;21.00;100053.00;;;;5027880;28;20263;-53
2023/08/31 00:26:25;;;;;;;2.80;2.43;;;20.00;69.40;20.90;100054.00;;;;5027878;28;20186;-53
2023/08/31 00:28:53;;;;;;;2.83;2.13;;;20.00;69.40;20.90;100050.00;;;;5027721;28;20227;-53
2023/08/31 00:31:19;;;;;;;5.10;2.40;;;19.90;69.20;20.90;100047.00;;;;5027869;28;20205;-53
2023/08/31 00:33:45;;;;;;;3.50;2.33;;;19.90;69.20;20.90;100060.00;;;;5027731;28;20183;-53
2023/08/31 00:36:11;;;;;;;2.63;2.30;;;19.90;69.10;20.80;100049.00;;;;5028031;28;20212;-53
2023/08/31 00:38:37;;;;;;;3.70;2.50;;;19.90;69.20;20.80;100047.00;;;;5031008;28;20680;-53
2023/08/31 00:41:03;;;;;;;2.40;2.20;;;19.90;69.10;20.80;100051.00;;;;5013713;28;20210;-54
2023/08/31 00:43:29;;;;;;;3.50;2.50;;;19.90;69.10;20.80;100057.00;;;;5031318;28;20652;-53
2023/08/31 00:45:59;;;;;;;2.93;2.20;;;19.90;69.00;20.80;100060.00;;;;5031264;28;20187;-53
2023/08/31 00:48:24;;;;;;;3.03;2.43;;;19.90;68.90;20.80;100057.00;;;;5030183;28;20653;-53
2023/08/31 00:50:50;;;;;;;2.73;2.43;;;19.80;68.90;20.80;100063.00;;;;5030955;28;20209;-54
2023/08/31 00:53:16;;;;;;;3.63;2.40;;;19.80;68.80;20.70;100064.00;;;;5030889;28;20658;-54
2023/08/31 00:55:44;;;;;;;2.57;2.30;;;19.90;68.90;20.70;100060.00;;;;5031270;28;20185;-52
2023/08/31 00:58:09;;;;;;;3.00;2.10;;;19.80;68.70;20.70;100077.00;;;;5010898;28;20198;-53
2023/08/31 01:01:09;;;;;;;2.87;2.40;;;19.80;68.80;20.70;100066.00;;;;5016943;28;20333;-54
2023/08/31 01:04:12;;;;;;;2.93;2.60;;;19.80;68.70;20.70;100070.00;;;;5020989;28;20188;-52
2023/08/31 01:07:06;;;;;;;3.93;2.40;;;19.80;68.90;20.70;100061.00;;;;5024704;28;20182;-53
2023/08/31 01:09:38;;;;;;;2.67;2.47;;;19.70;68.70;20.60;100068.00;;;;5024552;28;20590;-53
2023/08/31 01:12:22;;;;;;;3.40;2.43;;;19.70;68.60;20.60;100064.00;;;;5030908;28;20191;-52
2023/08/31 01:14:59;;;;;;;4.03;2.43;;;19.70;68.60;20.60;100065.00;;;;4999421;28;20191;-53
2023/08/31 01:17:26;;;;;;;2.73;2.37;;;19.70;68.70;20.60;100051.00;;;;5013799;28;20237;-53
2023/08/31 01:19:52;;;;;;;3.00;2.30;;;19.70;68.60;20.60;100066.00;;;;5012622;28;20298;-52
2023/08/31 01:22:50;;;;;;;3.07;2.40;;;19.70;68.80;20.60;100068.00;;;;5029485;28;20224;-52
2023/08/31 01:25:15;;;;;;;3.77;2.57;;;19.70;68.60;20.60;100056.00;;;;5012801;28;20206;-53
2023/08/31 01:27:41;;;;;;;3.30;2.43;;;19.70;68.60;20.60;100067.00;;;;5009431;28;20250;-53
2023/08/31 01:30:08;;;;;;;2.63;2.30;;;19.70;68.60;20.60;100075.00;;;;5011155;28;20236;-52
2023/08/31 01:32:34;;;;;;;5.23;2.40;;;19.60;68.50;20.50;100070.00;;;;5030304;28;20196;-53
2023/08/31 01:35:01;;;;;;;2.70;2.40;;;19.70;68.70;20.60;100062.00;;;;5030279;28;20189;-52
2023/08/31 01:37:53;;;;;;;2.97;2.20;;;19.70;68.80;20.50;100068.00;;;;5025140;28;20194;-61
2023/08/31 01:40:38;;;;;;;3.97;2.60;;;19.70;68.60;20.50;100063.00;;;;5005099;28;20701;-53
2023/08/31 01:43:05;;;;;;;2.97;2.50;;;19.60;68.50;20.50;100068.00;;;;5013233;28;20190;-52
2023/08/31 01:45:31;;;;;;;3.33;2.50;;;19.60;68.40;20.50;100069.00;;;;5013327;28;20183;-53
2023/08/31 01:47:57;;;;;;;3.47;2.40;;;19.60;68.40;20.50;100065.00;;;;5012283;28;20193;-52
2023/08/31 01:50:23;;;;;;;4.00;2.60;;;19.60;68.30;20.50;100081.00;;;;5015752;28;20695;-52
2023/08/31 01:52:48;;;;;;;3.40;2.60;;;19.60;68.20;20.50;100082.00;;;;5043279;28;20235;-52
2023/08/31 01:55:15;;;;;;;3.80;2.30;;;19.60;68.20;20.50;100081.00;;;;5030658;28;20214;-52
2023/08/31 01:57:41;;;;;;;3.37;2.60;;;19.60;68.20;20.50;100068.00;;;;5030656;28;20553;-52
2023/08/31 02:00:10;;;;;;;2.87;2.60;;;19.60;68.30;20.50;100083.00;;;;5029986;28;20255;-53
2023/08/31 02:02:35;;;;;;;2.77;2.27;;;19.50;68.20;20.40;100084.00;;;;5023468;28;20219;-53
2023/08/31 02:05:04;;;;;;;2.50;2.30;;;19.50;68.20;20.40;100082.00;;;;5023484;28;20225;-53
2023/08/31 02:07:30;;;;;;;2.53;2.33;;;19.50;68.20;20.40;100087.00;;;;5010920;28;20179;-53
2023/08/31 02:09:55;;;;;;;3.40;2.37;;;19.50;68.20;20.40;100079.00;;;;5018406;28;20201;-53
2023/08/31 02:12:21;;;;;;;2.90;2.50;;;19.50;68.10;20.40;100094.00;;;;5011818;28;20195;-53
2023/08/31 02:14:47;;;;;;;3.17;2.50;;;19.50;68.00;20.40;100084.00;;;;5017902;28;20195;-53
2023/08/31 02:17:13;;;;;;;2.90;2.43;;;19.50;68.00;20.40;100087.00;;;;5029926;28;20191;-53
2023/08/31 02:19:38;;;;;;;2.87;2.50;;;19.50;68.00;20.40;100100.00;;;;5025256;28;20237;-53
2023/08/31 02:22:04;;;;;;;2.97;2.50;;;19.40;67.80;20.40;100095.00;;;;5009465;28;20199;-52
2023/08/31 02:24:30;;;;;;;4.03;2.60;;;19.40;67.90;20.30;100094.00;;;;5023212;28;20186;-53
2023/08/31 02:26:56;;;;;;;2.60;2.40;;;19.40;67.90;20.30;100095.00;;;;5029239;28;20189;-54
2023/08/31 02:29:22;;;;;;;3.07;2.50;;;19.40;67.80;20.30;100027.00;;;;5011037;28;20186;-53
2023/08/31 02:31:48;;;;;;;4.07;2.37;;;19.40;67.80;20.30;100100.00;;;;5015346;28;20234;-53
2023/08/31 02:34:13;;;;;;;2.97;2.30;;;19.40;67.80;20.30;100103.00;;;;5012946;28;20181;-53
2023/08/31 02:36:39;;;;;;;3.63;2.40;;;19.40;67.70;20.30;100110.00;;;;5029274;28;20198;-53
2023/08/31 02:39:06;;;;;;;2.30;2.10;;;19.40;67.80;20.30;100096.00;;;;5028927;28;20217;-53
2023/08/31 02:41:32;;;;;;;3.47;2.43;;;19.40;67.80;20.30;100106.00;;;;5028888;28;20206;-53
2023/08/31 02:43:57;;;;;;;3.37;2.53;;;19.30;67.50;20.20;100093.00;;;;5029107;28;20254;-53
2023/08/31 02:46:23;;;;;;;3.77;2.20;;;19.30;67.40;20.20;100090.00;;;;5029361;28;20172;-53
2023/08/31 02:48:50;;;;;;;2.20;2.00;;;19.30;67.50;20.20;100100.00;;;;5029151;28;20190;-52
2023/08/31 02:51:15;;;;;;;2.80;2.23;;;19.30;67.50;20.20;100099.00;;;;5029112;28;20201;-52
2023/08/31 02:53:41;;;;;;;3.17;2.47;;;19.30;67.50;20.20;100074.00;;;;5029013;28;20177;-52
2023/08/31 02:56:07;;;;;;;2.60;2.40;;;19.20;67.50;20.20;100097.00;;;;5029071;28;20180;-53
2023/08/31 02:58:33;;;;;;;2.70;2.50;;;19.20;67.50;20.20;100094.00;;;;5028848;28;20187;-53
2023/08/31 03:01:11;;;;;;;2.70;2.50;;;19.30;67.50;20.10;100097.00;;;;5028751;28;20218;-53
2023/08/31 03:03:40;;;;;;;2.63;2.40;;;19.20;67.40;20.10;100097.00;;;;5019643;28;20204;-52
2023/08/31 03:06:09;;;;;;;2.50;2.30;;;19.20;67.30;20.10;100099.00;;;;5014389;28;20175;-53
2023/08/31 03:08:36;;;;;;;2.77;2.47;;;19.20;67.30;20.10;100101.00;;;;5024183;28;20251;-53
2023/08/31 03:11:02;;;;;;;3.27;2.40;;;19.20;67.40;20.10;100103.00;;;;5030125;28;20273;-53
2023/08/31 03:13:28;;;;;;;2.70;2.50;;;19.20;67.30;20.10;100099.00;;;;5030248;28;20273;-53
2023/08/31 03:15:54;;;;;;;2.90;2.60;;;19.10;67.30;20.10;100098.00;;;;5030177;28;20594;-52
2023/08/31 03:18:20;;;;;;;2.93;2.63;;;19.10;67.20;20.10;100108.00;;;;5029899;28;20232;-52
2023/08/31 03:20:45;;;;;;;3.47;2.60;;;19.10;67.20;20.10;100100.00;;;;5029740;28;20202;-52
2023/08/31 03:23:11;;;;;;;3.10;2.80;;;19.10;67.30;20.10;100102.00;;;;5030001;28;20182;-53
2023/08/31 03:25:37;;;;;;;3.00;2.80;;;19.10;67.10;20.10;100096.00;;;;5030086;28;20672;-52
2023/08/31 03:28:03;;;;;;;2.70;2.50;;;19.00;66.90;20.00;100107.00;;;;5029797;28;20270;-53
2023/08/31 03:30:29;;;;;;;3.80;2.80;;;19.10;67.30;20.00;100106.00;;;;5024127;28;20195;-52
2023/08/31 03:32:55;;;;;;;2.77;2.50;;;19.10;67.60;20.00;100112.00;;;;5026797;28;20193;-51
2023/08/31 03:35:26;;;;;;;4.10;2.47;;;19.10;67.40;20.00;100109.00;;;;5042749;28;20188;-52
2023/08/31 03:37:52;;;;;;;3.77;2.57;;;19.00;67.30;19.90;100104.00;;;;5017537;28;20182;-52
2023/08/31 03:40:18;;;;;;;3.57;2.57;;;19.00;67.30;19.90;100101.00;;;;5014079;28;20689;-51
2023/08/31 03:42:43;;;;;;;2.63;2.40;;;19.00;67.20;20.00;100103.00;;;;5030079;28;20185;-52
2023/08/31 03:45:09;;;;;;;2.67;2.30;;;19.00;67.20;20.00;100104.00;;;;5013836;28;20188;-52
2023/08/31 03:47:35;;;;;;;3.73;2.53;;;19.00;67.20;19.90;100116.00;;;;5030324;28;20194;-55
2023/08/31 03:50:01;;;;;;;2.83;2.50;;;19.00;67.30;19.90;100111.00;;;;5044460;28;20206;-53
2023/08/31 03:52:27;;;;;;;3.57;2.60;;;19.00;67.20;19.90;100115.00;;;;5032466;28;20677;-52
2023/08/31 03:54:52;;;;;;;3.13;2.53;;;18.90;67.20;19.90;100118.00;;;;5029823;28;20185;-52
2023/08/31 03:57:18;;;;;;;2.73;2.50;;;18.90;67.20;19.90;100115.00;;;;5029925;28;20206;-53
2023/08/31 03:59:44;;;;;;;2.83;2.60;;;18.90;67.10;19.90;100109.00;;;;5029414;28;20665;-53
2023/08/31 04:02:09;;;;;;;6.10;3.00;;;18.90;67.00;19.90;100116.00;;;;5023085;28;20188;-53
2023/08/31 04:04:35;;;;;;;3.13;2.70;;;18.90;67.00;19.90;100122.00;;;;5029220;28;20213;-52
2023/08/31 04:07:01;;;;;;;3.47;2.70;;;18.80;67.00;19.90;100122.00;;;;5020887;28;20719;-53
2023/08/31 04:09:27;;;;;;;3.53;2.63;;;18.90;67.20;19.80;100121.00;;;;5027538;28;20187;-51
2023/08/31 04:11:52;;;;;;;4.73;2.83;;;18.90;67.10;19.90;100123.00;;;;5030738;28;20183;-52
2023/08/31 04:14:18;;;;;;;4.13;2.83;;;18.90;67.10;19.80;100122.00;;;;5032562;28;20826;-52
2023/08/31 04:16:47;;;;;;;3.17;2.83;;;18.80;67.00;19.80;100128.00;;;;5032935;28;20184;-52
2023/08/31 04:19:12;;;;;;;2.97;2.40;;;18.80;67.00;19.80;100127.00;;;;5032503;28;20248;-52
2023/08/31 04:21:38;;;;;;;3.73;2.70;;;18.80;67.10;19.80;100123.00;;;;5032910;28;20222;-52
2023/08/31 04:24:05;;;;;;;6.23;3.13;;;18.80;67.20;19.80;100123.00;;;;5032172;28;20208;-52
2023/08/31 04:26:31;;;;;;;4.50;2.60;;;18.80;67.10;19.80;100130.00;;;;5032796;28;20180;-52
2023/08/31 04:28:57;;;;;;;3.67;2.57;;;18.80;67.10;19.80;100127.00;;;;5030437;28;20178;-52
2023/08/31 04:31:23;;;;;;;4.53;2.73;;;18.80;67.20;19.80;100127.00;;;;5024597;28;20203;-52
2023/08/31 04:33:53;;;;;;;3.10;2.60;;;18.80;67.30;19.80;100132.00;;;;5032783;28;20175;-52
2023/08/31 04:36:20;;;;;;;3.70;2.70;;;18.80;67.20;19.80;100123.00;;;;5032040;28;20179;-52
2023/08/31 04:38:46;;;;;;;5.33;2.90;;;18.80;67.20;19.70;100131.00;;;;5032150;28;20179;-52
2023/08/31 04:41:12;;;;;;;2.83;2.63;;;18.80;67.20;19.70;100137.00;;;;5032493;28;20202;-51
2023/08/31 04:43:38;;;;;;;2.87;2.57;;;18.70;67.20;19.70;100140.00;;;;5032106;28;20179;-52
2023/08/31 04:46:04;;;;;;;2.83;2.50;;;18.70;67.20;19.70;100144.00;;;;5032323;28;20245;-52
2023/08/31 04:48:30;;;;;;;6.57;2.63;;;18.70;67.80;19.70;100147.00;;;;5032276;28;20183;-52
2023/08/31 04:50:57;;;;;;;5.50;2.43;;;18.70;67.60;19.70;100147.00;;;;5032345;28;20207;-53
2023/08/31 04:53:22;;;;;;;3.97;2.60;;;18.70;67.60;19.70;100145.00;;;;5031813;28;20186;-52
2023/08/31 04:55:48;;;;;;;3.90;2.30;;;18.80;68.00;19.60;100158.00;;;;5032232;28;20190;-52
2023/08/31 04:58:14;;;;;;;3.23;2.40;;;18.80;68.00;19.60;100143.00;;;;5032236;28;20191;-52
2023/08/31 05:00:40;;;;;;;3.07;2.50;;;18.80;68.00;19.60;100141.00;;;;5031778;28;20708;-52
2023/08/31 05:03:06;;;;;;;3.57;2.63;;;18.80;68.00;19.60;100157.00;;;;5026223;28;20175;-52
2023/08/31 05:05:31;;;;;;;4.23;2.20;;;18.80;68.10;19.60;100153.00;;;;5031950;28;20271;-53
2023/08/31 05:07:58;;;;;;;3.63;2.40;;;18.80;68.10;19.60;100161.00;;;;5031940;28;20207;-53
2023/08/31 05:10:24;;;;;;;2.87;2.40;;;18.80;68.10;19.60;100162.00;;;;5031602;28;20210;-52
2023/08/31 05:12:50;;;;;;;3.17;2.30;;;18.70;68.00;19.60;100166.00;;;;5032002;28;20621;-52
2023/08/31 05:15:16;;;;;;;2.87;2.20;;;18.80;68.10;19.60;100171.00;;;;5031400;28;20190;-52
2023/08/31 05:17:42;;;;;;;5.90;2.20;;;18.80;68.10;19.60;100167.00;;;;5031691;28;20194;-52
2023/08/31 05:20:10;;;;;;;3.60;2.60;;;18.70;68.00;19.60;100181.00;;;;5031474;28;20248;-53
2023/08/31 05:22:36;;;;;;;3.67;2.10;;;18.70;68.00;19.60;100189.00;;;;5031585;28;20249;-52
2023/08/31 05:25:01;;;;;;;3.23;2.10;;;18.70;68.00;19.60;100188.00;;;;5031523;28;20187;-53
2023/08/31 05:27:27;;;;;;;3.27;2.40;;;18.70;68.00;19.60;100185.00;;;;5031723;28;20573;-53
2023/08/31 05:29:53;;;;;;;2.80;2.30;;;18.70;68.00;19.60;100189.00;;;;5031417;28;20687;-53
2023/08/31 05:32:19;;;;;;;3.03;2.23;;;18.70;68.00;19.60;100191.00;;;;5036664;28;20259;-57
2023/08/31 05:34:44;;;;;;;2.47;2.27;;;18.70;68.20;19.60;100196.00;;;;5045840;28;20194;-52
2023/08/31 05:37:10;;;;;;;2.60;2.10;;;18.70;68.30;19.60;100200.00;;;;5032176;28;20278;-52
2023/08/31 05:39:36;;;;;;;2.57;2.20;;;18.70;68.40;19.60;100204.00;;;;5031974;28;20207;-53
2023/08/31 05:42:02;;;;;;;2.57;2.10;;;18.70;68.40;19.60;100209.00;;;;5030429;28;20184;-52
2023/08/31 05:44:27;;;;;;;2.70;2.20;;;18.70;68.50;19.60;100207.00;;;;5026731;28;20253;-51
2023/08/31 05:46:53;;;;;;;2.47;2.20;;;18.70;68.60;19.50;100196.00;;;;5029946;28;20262;-51
2023/08/31 05:49:19;;;;;;;2.40;2.03;;;18.70;68.50;19.50;100208.00;;;;5042036;28;20191;-51
2023/08/31 05:51:44;;;;;;;2.67;2.00;;;18.70;68.50;19.50;100210.00;;;;5023181;28;20222;-52
2023/08/31 05:54:12;;;;;;;2.30;2.03;;;18.70;68.70;19.50;100213.00;;;;5030940;28;21774;-58
2023/08/31 05:56:39;;;;;;;2.70;2.23;;;18.60;68.60;19.50;100206.00;;;;5031415;28;20190;-53
2023/08/31 05:59:08;;;;;;;3.30;2.20;;;18.60;68.60;19.50;100207.00;;;;5030622;28;20692;-51
2023/08/31 06:01:35;;;;;;;3.30;2.20;;;18.60;68.70;19.50;100206.00;;;;5026933;28;20208;-52
2023/08/31 06:04:01;;;;;;;2.23;2.03;;;18.60;68.70;19.50;100218.00;;;;5028611;28;20313;-53
2023/08/31 06:06:26;;;;;;;3.80;2.20;;;18.60;68.70;19.50;100207.00;;;;5020165;28;20825;-52
2023/08/31 06:08:54;;;;;;;2.27;2.00;;;18.60;68.70;19.50;100217.00;;;;5017677;28;20179;-52
2023/08/31 06:11:19;;;;;;;2.37;2.17;;;18.60;68.80;19.50;100216.00;;;;5019011;28;20340;-52
2023/08/31 06:13:45;;;;;;;2.10;1.90;;;18.70;69.00;19.50;100218.00;;;;5013814;28;20822;-52
2023/08/31 06:16:11;;;;;;;2.10;1.90;;;18.60;68.90;19.50;100217.00;;;;5014816;28;20525;-52
2023/08/31 06:18:37;;;;;;;2.30;2.10;;;18.60;68.90;19.50;100220.00;;;;5023436;28;20191;-51
2023/08/31 06:21:03;;;;;;;2.10;2.00;;;18.60;68.90;19.50;100226.00;;;;5030475;28;20207;-53
2023/08/31 06:23:29;;;;;;;2.03;1.93;;;18.60;68.90;19.50;100230.00;;;;5030402;28;20593;-52
2023/08/31 06:25:54;;;;;;;2.73;2.17;;;18.60;69.00;19.50;100237.00;;;;5030181;28;20696;-53
2023/08/31 06:28:20;;;;;;;2.00;1.90;;;18.60;69.00;19.50;100233.00;;;;5030347;28;20179;-53
2023/08/31 06:30:47;;;;;;;2.10;2.00;;;18.60;69.00;19.50;100231.00;;;;5030144;28;20292;-52
2023/08/31 06:33:17;;;;;;;2.30;2.10;;;18.60;69.10;19.50;100243.00;;;;5029964;28;20194;-53
2023/08/31 06:35:46;;;;;;;2.17;2.00;;;18.60;69.10;19.50;100243.00;;;;5010765;28;20219;-52
2023/08/31 06:38:12;;;;;;;1.83;1.73;;;18.60;69.10;19.50;100249.00;;;;5011728;28;20661;-52
2023/08/31 06:40:38;;;;;;;2.10;1.90;;;18.60;69.10;19.50;100253.00;;;;5021867;28;20261;-52
2023/08/31 06:43:03;;;;;;;2.20;2.00;;;18.50;69.10;19.50;100246.00;;;;5030117;28;20188;-53
2023/08/31 06:45:29;;;;;;;2.10;1.90;;;18.50;69.00;19.50;100239.00;;;;5030156;28;20183;-53
2023/08/31 06:47:55;;;;;;;1.97;1.87;;;18.60;69.20;19.50;100244.00;;;;5029227;28;20179;-51
2023/08/31 06:50:21;;;;;;;2.00;1.80;;;18.50;69.10;19.50;100246.00;;;;5012486;28;20203;-52
2023/08/31 06:52:46;;;;;;;2.03;1.93;;;18.50;69.10;19.50;100241.00;;;;5013213;28;20602;-52
2023/08/31 06:55:12;;;;;;;2.27;1.97;;;18.60;69.20;19.50;100243.00;;;;5030363;28;20213;-52
2023/08/31 06:57:38;;;;;;;2.20;2.00;;;18.50;69.10;19.50;100241.00;;;;5030686;28;20222;-52
2023/08/31 07:00:06;;;;;;;1.90;1.80;;;18.50;69.20;19.50;100239.00;;;;5032228;28;20215;-53
2023/08/31 07:02:34;;;;;;;2.27;2.07;;;18.60;69.30;19.50;100240.00;;;;5026635;28;20191;-52
2023/08/31 07:05:00;;;;;;;2.10;1.90;;;18.60;69.40;19.50;100241.00;;;;5030075;28;20187;-52
2023/08/31 07:07:25;;;;;;;2.50;1.90;;;18.60;69.40;19.50;100244.00;;;;5030109;28;20179;-52
2023/08/31 07:09:51;;;;;;;2.00;1.90;;;18.60;69.40;19.50;100242.00;;;;5025398;28;20206;-52
2023/08/31 07:12:17;;;;;;;2.33;1.90;;;18.50;69.30;19.50;100230.00;;;;5027334;28;20182;-53
2023/08/31 07:14:43;;;;;;;2.23;2.00;;;18.50;69.40;19.50;100246.00;;;;5029506;28;20186;-53
2023/08/31 07:17:09;;;;;;;2.10;1.90;;;18.50;69.50;19.50;100248.00;;;;5029156;28;20193;-52
2023/08/31 07:19:37;;;;;;;2.30;2.07;;;18.50;69.40;19.50;100254.00;;;;5028543;28;20211;-52
2023/08/31 07:22:04;;;;;;;2.33;1.90;;;18.60;69.60;19.50;100254.00;;;;5029336;28;20606;-51
2023/08/31 07:24:30;;;;;;;2.30;2.10;;;18.60;69.60;19.50;100243.00;;;;5029291;28;20191;-51
2023/08/31 07:26:56;;;;;;;2.00;1.80;;;18.50;69.50;19.50;100252.00;;;;5029527;28;20190;-52
2023/08/31 07:29:22;;;;;;;2.07;1.87;;;18.60;69.70;19.50;100254.00;;;;5029194;28;20240;-52
2023/08/31 07:31:47;;;;;;;2.00;1.90;;;18.50;69.50;19.50;100255.00;;;;5031812;28;20198;-53
2023/08/31 07:34:13;;;;;;;2.17;1.93;;;18.50;69.60;19.50;100259.00;;;;5034674;28;20283;-52
2023/08/31 07:36:39;;;;;;;2.20;1.90;;;18.50;69.60;19.50;100263.00;;;;5029158;28;20179;-52
2023/08/31 07:39:05;;;;;;;2.10;1.90;;;18.50;69.60;19.50;100269.00;;;;5028968;28;20232;-53
2023/08/31 07:41:31;;;;;;;1.90;1.80;;;18.60;69.80;19.50;100263.00;;;;5030150;28;20203;-53
2023/08/31 07:43:56;;;;;;;2.00;1.90;;;18.60;69.90;19.50;100259.00;;;;5029962;28;20676;-53
2023/08/31 07:46:22;;;;;;;1.90;1.80;;;18.50;69.70;19.50;100268.00;;;;5042023;28;20190;-55
2023/08/31 07:48:50;;;;;;;2.00;1.90;;;18.50;69.80;19.50;100271.00;;;;5037567;28;20189;-53
2023/08/31 07:51:15;;;;;;;2.27;2.07;;;18.50;69.80;19.50;100279.00;;;;5028405;28;20575;-51
2023/08/31 07:53:41;;;;;;;2.10;1.90;;;18.50;69.80;19.50;100284.00;;;;5027490;28;20187;-52
2023/08/31 07:56:07;;;;;;;2.10;1.90;;;18.50;69.80;19.50;100284.00;;;;5027848;28;20719;-52
2023/08/31 07:58:33;;;;;;;2.17;1.97;;;18.60;69.90;19.50;100280.00;;;;5028539;28;20229;-52
2023/08/31 08:00:58;;;;;;;2.10;1.90;;;18.60;70.00;19.50;100285.00;;;;5027462;28;20241;-52
2023/08/31 08:03:26;;;;;;;2.10;2.00;;;18.60;70.00;19.50;100286.00;;;;5012773;28;20186;-52
2023/08/31 08:05:51;;;;;;;2.30;1.80;;;18.60;70.10;19.50;100288.00;;;;5018174;28;20291;-52
2023/08/31 08:08:17;;;;;;;2.27;2.00;;;18.60;70.20;19.50;100292.00;;;;5018064;28;20269;-52
2023/08/31 08:10:43;;;;;;;1.80;1.70;;;18.60;70.30;19.50;100287.00;;;;5023980;28;20844;-52
2023/08/31 08:13:09;;;;;;;1.90;1.70;;;18.60;70.20;19.50;100288.00;;;;5028849;28;20565;-52
2023/08/31 08:15:35;;;;;;;2.80;1.90;;;18.60;70.30;19.50;100300.00;;;;5028794;28;20214;-52
2023/08/31 08:18:01;;;;;;;2.20;2.00;;;18.60;70.30;19.50;100300.00;;;;5010854;28;20237;-51
2023/08/31 08:20:28;;;;;;;2.20;2.00;;;18.60;70.30;19.50;100304.00;;;;5026532;28;20234;-52
2023/08/31 08:22:54;;;;;;;5.13;2.10;;;18.60;70.30;19.50;100301.00;;;;5023458;28;20617;-51
2023/08/31 08:25:20;;;;;;;2.87;2.03;;;18.60;70.30;19.50;100291.00;;;;5028701;28;20188;-52
2023/08/31 08:27:46;;;;;;;2.10;1.80;;;18.60;70.30;19.50;100290.00;;;;5008061;28;20298;-52
2023/08/31 08:30:12;;;;;;;1.90;1.80;;;18.60;70.50;19.50;100297.00;;;;5025253;28;20211;-51
2023/08/31 08:32:37;;;;;;;1.97;1.83;;;18.60;70.50;19.50;100298.00;;;;5028586;28;20187;-52
2023/08/31 08:35:04;;;;;;;2.60;2.00;;;18.60;70.50;19.50;100305.00;;;;5029085;28;20182;-52
2023/08/31 08:37:31;;;;;;;2.20;2.00;;;18.60;70.50;19.50;100304.00;;;;5028828;28;20206;-52
2023/08/31 08:39:57;;;;;;;2.23;1.97;;;18.60;70.60;19.50;100303.00;;;;5020941;28;20234;-51
2023/08/31 08:42:25;;;;;;;2.10;1.90;;;18.60;70.50;19.50;100297.00;;;;5016649;28;20212;-52
2023/08/31 08:44:51;;;;;;;2.20;1.80;;;18.60;70.50;19.50;100296.00;;;;5009439;28;20786;-52
2023/08/31 08:47:17;;;;;;;2.00;1.90;;;18.60;70.50;19.50;100295.00;;;;5017087;28;20244;-51
2023/08/31 08:49:43;;;;;;;2.00;1.90;;;18.70;70.70;19.50;100309.00;;;;5028620;28;20179;-52
2023/08/31 08:52:09;;;;;;;1.97;1.70;;;18.60;70.60;19.50;100300.00;;;;5028701;28;20206;-52
2023/08/31 08:54:35;;;;;;;1.87;1.77;;;18.60;70.60;19.50;100305.00;;;;5011515;28;20579;-53
2023/08/31 08:57:01;;;;;;;1.80;1.70;;;18.70;70.80;19.50;100279.00;;;;5022182;28;20188;-51
2023/08/31 08:59:27;;;;;;;2.00;1.90;;;18.60;70.60;19.50;100300.00;;;;4995820;28;20210;-52
2023/08/31 09:01:53;;;;;;;2.03;1.90;;;18.60;70.70;19.60;100312.00;;;;5013798;28;20216;-52
2023/08/31 09:04:19;;;;;;;2.10;1.90;;;18.60;70.70;19.60;100306.00;;;;5022644;28;20698;-52
2023/08/31 09:06:45;;;;;;;1.93;1.80;;;18.60;70.80;19.60;100311.00;;;;5002046;28;20583;-52
2023/08/31 09:09:11;;;;;;;2.20;2.00;;;18.60;70.90;19.60;100313.00;;;;5024040;28;20183;-51
2023/08/31 09:11:36;;;;;;;1.97;1.87;;;18.60;70.90;19.60;100312.00;;;;5022058;28;20222;-52
2023/08/31 09:14:19;;;;;;;1.80;1.70;;;18.70;71.10;19.60;100314.00;;;;5023655;28;20642;-52
2023/08/31 09:16:49;;;;;;;5.13;2.20;;;18.70;71.30;19.60;100309.00;;;;5031402;28;20228;-52
2023/08/31 09:19:22;;;;;;;4.67;2.17;;;18.60;71.30;19.60;100317.00;;;;5030920;28;20225;-52
2023/08/31 09:21:53;;;;;;;4.17;2.20;;;18.60;71.60;19.60;100319.00;;;;5025544;28;20194;-52
2023/08/31 09:24:19;;;;;;;4.10;1.97;;;18.70;71.90;19.60;100308.00;;;;5023259;28;20187;-52
2023/08/31 09:26:47;;;;;;;2.70;1.90;;;18.60;71.50;19.60;100307.00;;;;5031559;28;20190;-51
2023/08/31 09:29:13;;;;;;;2.40;1.90;;;18.60;71.60;19.60;100311.00;;;;5031617;28;20207;-53
2023/08/31 09:31:43;;;;;;;3.73;1.90;;;18.60;71.50;19.60;100305.00;;;;5025050;28;20206;-53
2023/08/31 09:34:09;;;;;;;2.73;1.87;;;18.70;71.80;19.60;100308.00;;;;5029901;28;20187;-54
2023/08/31 09:36:35;;;;;;;2.17;1.90;;;18.70;71.70;19.60;100310.00;;;;5032386;28;20199;-52
2023/08/31 09:39:00;;;;;;;3.00;2.10;;;18.70;71.70;19.60;100320.00;;;;4997878;28;20637;-52
2023/08/31 09:41:26;;;;;;;3.07;2.13;;;18.70;71.90;19.60;100309.00;;;;5032255;28;20199;-52
2023/08/31 09:43:52;;;;;;;2.20;1.97;;;18.70;72.00;19.60;100323.00;;;;5032534;28;20183;-53
2023/08/31 09:46:18;;;;;;;3.97;2.10;;;18.70;72.20;19.60;100310.00;;;;5041832;28;20234;-52
2023/08/31 09:48:43;;;;;;;2.27;2.00;;;18.70;72.30;19.60;100310.00;;;;5041525;28;20194;-52
2023/08/31 09:51:12;;;;;;;3.07;2.00;;;18.70;72.30;19.60;100288.00;;;;5031529;28;20579;-51
2023/08/31 09:53:38;;;;;;;2.00;1.80;;;18.70;72.50;19.60;100320.00;;;;5030562;28;20506;-53
2023/08/31 09:56:07;;;;;;;2.23;1.90;;;18.70;72.50;19.60;100317.00;;;;5031477;28;20183;-52
2023/08/31 09:58:32;;;;;;;1.83;1.73;;;18.70;72.70;19.60;100319.00;;;;5011748;28;20549;-52
2023/08/31 10:00:58;;;;;;;2.03;1.83;;;18.70;72.80;19.60;100288.00;;;;5028954;28;20211;-52
2023/08/31 10:03:24;;;;;;;1.83;1.70;;;18.70;72.80;19.60;100319.00;;;;5013666;28;20179;-53
2023/08/31 10:05:50;;;;;;;2.43;1.83;;;18.70;72.90;19.60;100325.00;;;;5011522;28;20179;-53
2023/08/31 10:08:16;;;;;;;1.90;1.80;;;18.70;72.90;19.70;100314.00;;;;5031099;28;20177;-52
2023/08/31 10:10:42;;;;;;;3.83;2.00;;;18.70;72.90;19.70;100330.00;;;;5030914;28;20293;-52
2023/08/31 10:13:08;;;;;;;3.00;1.93;;;18.80;73.30;19.70;100317.00;;;;5031341;28;20623;-52
2023/08/31 10:15:37;;;;;;;2.60;1.90;;;18.70;73.20;19.70;100320.00;;;;5031200;28;20183;-52
2023/08/31 10:18:04;;;;;;;2.17;1.80;;;18.80;73.20;19.70;100311.00;;;;5031191;28;20175;-52
2023/08/31 10:20:34;;;;;;;2.13;1.87;;;18.80;73.40;19.70;100331.00;;;;5030601;28;20301;-53
2023/08/31 10:23:04;;;;;;;2.20;1.90;;;18.80;73.20;19.70;100316.00;;;;5014001;28;20676;-52
2023/08/31 10:25:59;;;;;;;2.30;2.10;;;18.80;73.40;19.70;100320.00;;;;5013494;28;20689;-53
2023/08/31 10:28:27;;;;;;;2.30;2.00;;;18.80;73.40;19.70;100322.00;;;;5021650;28;20214;-53
2023/08/31 10:31:07;;;;;;;2.93;1.97;;;18.80;73.50;19.70;100322.00;;;;5027436;28;20203;-53
2023/08/31 10:33:57;;;;;;;2.70;2.10;;;18.80;73.50;19.80;100322.00;;;;5022668;28;20183;-53
2023/08/31 10:36:44;;;;;;;2.00;1.80;;;18.80;73.70;19.80;100317.00;;;;5022976;28;20209;-53
2023/08/31 10:39:17;;;;;;;2.27;1.87;;;18.80;73.70;19.70;100316.00;;;;5015501;28;20621;-53
2023/08/31 10:41:54;;;;;;;1.80;1.70;;;18.80;73.80;19.70;100313.00;;;;5030918;28;20214;-51
2023/08/31 10:44:22;;;;;;;2.83;1.80;;;18.80;73.70;19.80;100316.00;;;;5030344;28;20630;-54
2023/08/31 10:46:48;;;;;;;1.80;1.70;;;18.80;73.80;19.80;100311.00;;;;5030539;28;20276;-52
2023/08/31 10:49:15;;;;;;;4.93;1.90;;;18.90;73.50;19.80;100300.00;;;;5028764;28;20194;-51